Time;durP1;ratioP1;P1;durP2;ratioP2;P2;SDS_P1;SDS_P2;PMS_P1;PMS_P2;Temp;Humidity;BMP_temperature;BMP_pressure;BME280_temperature;BME280_humidity;BME280_pressure;Samples;Min_cycle;Max_cycle;Signal;HPM_P1;HPM_P2
2021/05/03 00:00:55;;;;;;;4.22;2.28;;;;;;;5.34;64.82;101778.16;5062896;28;20048;-66
2021/05/03 00:03:21;;;;;;;7.22;2.75;;;;;;;5.27;65.09;101775.44;5068934;28;20509;-66
2021/05/03 00:05:55;;;;;;;7.22;3.10;;;;;;;5.25;64.87;101778.84;5065920;28;20049;-66
2021/05/03 00:08:21;;;;;;;6.68;3.03;;;;;;;5.18;65.45;101779.56;5073626;28;20083;-66
2021/05/03 00:10:47;;;;;;;5.63;2.63;;;;;;;5.18;65.26;101772.69;5065165;28;20068;-66
2021/05/03 00:13:13;;;;;;;6.40;3.10;;;;;;;5.14;65.74;101771.78;5063478;28;20045;-66
2021/05/03 00:15:39;;;;;;;8.02;2.90;;;;;;;5.08;66.56;101773.34;5068943;28;20108;-66
2021/05/03 00:18:05;;;;;;;7.30;2.38;;;;;;;5.08;66.04;101783.66;5068294;28;20052;-66
2021/05/03 00:20:31;;;;;;;6.00;2.42;;;;;;;5.09;66.16;101763.06;5059460;28;20044;-66
2021/05/03 00:22:58;;;;;;;7.28;2.60;;;;;;;5.10;66.01;101767.38;5063183;28;20052;-66
2021/05/03 00:25:24;;;;;;;8.05;2.97;;;;;;;5.06;66.14;101760.44;5069319;28;20074;-66
2021/05/03 00:27:50;;;;;;;6.78;2.55;;;;;;;5.02;66.02;101765.50;5071627;28;20063;-66
2021/05/03 00:30:17;;;;;;;6.05;3.80;;;;;;;5.00;66.29;101756.84;5065611;28;21462;-66
2021/05/03 00:32:43;;;;;;;5.43;2.67;;;;;;;5.01;66.45;101748.28;5067822;28;20049;-66
2021/05/03 00:35:11;;;;;;;5.63;2.72;;;;;;;5.00;66.39;101749.97;5069307;28;20075;-66
2021/05/03 00:37:38;;;;;;;5.30;2.53;;;;;;;4.98;66.19;101749.09;5072987;28;20052;-66
2021/05/03 00:40:06;;;;;;;10.07;2.85;;;;;;;4.98;65.94;101742.22;5065547;28;20041;-66
2021/05/03 00:42:33;;;;;;;6.60;3.08;;;;;;;4.96;66.50;101743.91;5064925;28;20044;-66
2021/05/03 00:45:06;;;;;;;8.13;3.17;;;;;;;4.93;65.93;101741.28;5063800;28;20173;-66
2021/05/03 00:47:33;;;;;;;6.35;3.10;;;;;;;4.88;66.22;101744.59;5063381;28;20052;-66
2021/05/03 00:49:59;;;;;;;11.50;4.05;;;;;;;4.83;66.67;101747.09;5067501;28;20036;-66
2021/05/03 00:52:25;;;;;;;7.75;3.17;;;;;;;4.73;67.14;101748.56;5061017;28;20048;-66
2021/05/03 00:54:51;;;;;;;7.78;3.05;;;;;;;4.72;66.77;101744.25;5067955;28;20052;-66
2021/05/03 00:57:17;;;;;;;6.15;3.38;;;;;;;4.66;66.68;101747.56;5069883;28;20044;-66
2021/05/03 00:59:43;;;;;;;7.07;3.20;;;;;;;4.57;67.91;101749.94;5060500;28;20045;-66
2021/05/03 01:02:09;;;;;;;5.50;3.30;;;;;;;4.64;67.61;101756.13;5063374;28;20075;-66
2021/05/03 01:04:35;;;;;;;7.93;3.08;;;;;;;4.65;67.58;101761.28;5067016;28;20045;-66
2021/05/03 01:07:01;;;;;;;6.07;3.05;;;;;;;4.62;67.89;101763.81;5065197;28;20467;-66
2021/05/03 01:09:27;;;;;;;7.05;3.28;;;;;;;4.64;67.70;101762.13;5058027;28;20509;-65
2021/05/03 01:11:53;;;;;;;9.32;3.40;;;;;;;4.66;67.42;101763.03;5058131;28;20049;-66
2021/05/03 01:14:20;;;;;;;6.47;2.83;;;;;;;4.66;67.06;101768.19;5061321;28;20051;-65
2021/05/03 01:16:46;;;;;;;5.47;3.22;;;;;;;4.63;67.12;101763.00;5066319;28;20158;-66
2021/05/03 01:19:12;;;;;;;10.05;3.47;;;;;;;4.63;67.93;101759.53;5065275;28;20591;-66
2021/05/03 01:21:39;;;;;;;7.30;3.33;;;;;;;4.63;67.72;101763.00;5065438;28;20048;-66
2021/05/03 01:24:06;;;;;;;9.02;3.67;;;;;;;4.56;67.57;101755.94;5067097;28;20407;-66
2021/05/03 01:26:32;;;;;;;8.85;3.33;;;;;;;4.56;67.94;101758.50;5061538;28;20056;-66
2021/05/03 01:28:58;;;;;;;9.55;3.25;;;;;;;4.56;68.04;101762.81;5062428;28;20056;-66
2021/05/03 01:31:23;;;;;;;8.00;3.60;;;;;;;4.63;67.93;101763.00;5061595;28;20619;-66
2021/05/03 01:33:49;;;;;;;9.13;3.28;;;;;;;4.58;67.21;101766.31;5060677;28;20500;-66
2021/05/03 01:36:15;;;;;;;8.30;3.22;;;;;;;4.50;68.04;101772.13;5066278;28;20102;-66
2021/05/03 01:38:42;;;;;;;5.85;3.17;;;;;;;4.53;67.77;101773.03;5059820;28;20052;-67
2021/05/03 01:41:08;;;;;;;6.05;3.10;;;;;;;4.53;67.94;101771.34;5065349;28;20044;-66
2021/05/03 01:43:34;;;;;;;6.45;3.15;;;;;;;4.54;67.52;101777.38;5064895;28;20049;-66
2021/05/03 01:46:01;;;;;;;6.82;2.90;;;;;;;4.50;67.94;101782.44;5058609;28;20072;-66
2021/05/03 01:48:29;;;;;;;7.32;3.33;;;;;;;4.49;67.76;101788.41;5062669;28;20167;-66
2021/05/03 01:50:57;;;;;;;8.27;3.15;;;;;;;4.46;67.95;101792.63;5061091;28;20056;-66
2021/05/03 01:53:24;;;;;;;7.78;3.30;;;;;;;4.40;67.97;101785.63;5063751;28;20118;-66
2021/05/03 01:55:53;;;;;;;7.32;3.17;;;;;;;4.36;68.08;101782.13;5063182;28;20040;-66
2021/05/03 01:58:20;;;;;;;6.68;3.20;;;;;;;4.45;67.73;101785.75;5064997;28;20048;-64
2021/05/03 02:00:45;;;;;;;7.78;3.58;;;;;;;4.40;67.64;101783.06;5065920;28;20048;-67
2021/05/03 02:03:19;;;;;;;7.18;3.38;;;;;;;4.29;68.09;101771.66;5065230;28;20601;-65
2021/05/03 02:05:45;;;;;;;5.50;3.17;;;;;;;4.07;68.57;101772.81;5061038;28;20068;-66
2021/05/03 02:08:12;;;;;;;6.20;3.80;;;;;;;3.88;69.07;101775.84;5056787;28;20106;-65
2021/05/03 02:10:38;;;;;;;8.13;3.88;;;;;;;3.82;69.68;101778.25;5057457;28;20045;-66
2021/05/03 02:13:05;;;;;;;8.13;3.95;;;;;;;3.83;69.30;101773.97;5064650;28;20055;-66
2021/05/03 02:15:33;;;;;;;8.27;3.75;;;;;;;3.78;69.79;101779.00;5066375;28;20087;-66
2021/05/03 02:17:59;;;;;;;8.15;3.72;;;;;;;3.63;69.83;101776.91;5068638;28;20059;-65
2021/05/03 02:20:25;;;;;;;7.60;3.42;;;;;;;3.53;70.82;101775.78;5062399;28;20040;-66
2021/05/03 02:22:51;;;;;;;7.20;3.88;;;;;;;3.55;70.12;101779.28;5058191;28;20510;-66
2021/05/03 02:25:17;;;;;;;6.28;3.75;;;;;;;3.61;70.46;101777.69;5064909;28;20049;-66
2021/05/03 02:27:43;;;;;;;6.15;3.88;;;;;;;3.60;70.53;101771.66;5059816;28;20056;-66
2021/05/03 02:30:11;;;;;;;8.63;3.72;;;;;;;3.65;70.34;101771.78;5063361;28;20045;-66
2021/05/03 02:32:39;;;;;;;7.20;3.70;;;;;;;3.61;70.67;101772.53;5066702;28;20564;-66
2021/05/03 02:35:07;;;;;;;6.00;3.85;;;;;;;3.48;71.33;101773.91;5060470;28;20049;-66
2021/05/03 02:37:33;;;;;;;12.27;3.72;;;;;;;3.38;71.28;101776.25;5064750;28;20106;-67
2021/05/03 02:39:59;;;;;;;8.35;3.70;;;;;;;3.36;71.64;101772.75;5066736;28;20040;-66
2021/05/03 02:42:25;;;;;;;11.57;4.70;;;;;;;3.45;71.39;101777.28;5065310;28;20555;-65
2021/05/03 02:44:51;;;;;;;7.68;3.67;;;;;;;3.51;70.92;101763.72;5064077;28;20044;-66
2021/05/03 02:47:18;;;;;;;8.45;4.95;;;;;;;3.46;71.15;101768.75;5056203;28;20044;-65
2021/05/03 02:49:44;;;;;;;7.03;3.80;;;;;;;3.38;71.39;101762.53;5057806;28;20049;-66
2021/05/03 02:52:10;;;;;;;7.55;4.25;;;;;;;3.32;71.75;101765.78;5073678;28;20155;-66
2021/05/03 02:54:36;;;;;;;8.40;4.28;;;;;;;3.32;71.44;101762.34;5060297;28;20056;-64
2021/05/03 02:57:03;;;;;;;6.35;3.58;;;;;;;3.38;71.97;101768.53;5066884;28;20053;-64
2021/05/03 02:59:29;;;;;;;10.65;4.13;;;;;;;3.42;71.04;101761.75;5061404;28;20053;-65
2021/05/03 03:01:55;;;;;;;9.48;4.18;;;;;;;3.44;71.24;101766.97;5061042;28;20045;-64
2021/05/03 03:04:22;;;;;;;10.88;4.25;;;;;;;3.42;71.43;101761.75;5054009;28;20049;-64
2021/05/03 03:06:48;;;;;;;8.52;3.50;;;;;;;3.46;71.01;101765.28;5065848;28;20438;-64
2021/05/03 03:09:14;;;;;;;8.88;4.05;;;;;;;3.42;71.14;101756.63;5064745;28;20045;-66
2021/05/03 03:11:42;;;;;;;7.65;3.78;;;;;;;3.45;71.17;101761.84;5060406;28;20071;-66
2021/05/03 03:14:08;;;;;;;8.25;3.80;;;;;;;3.43;71.30;101760.94;5063887;28;20041;-66
2021/05/03 03:16:34;;;;;;;6.47;3.83;;;;;;;3.38;71.15;101759.94;5063732;28;20064;-66
2021/05/03 03:19:01;;;;;;;9.65;4.07;;;;;;;3.28;71.87;101760.53;5062733;28;20052;-66
2021/05/03 03:21:27;;;;;;;10.30;4.22;;;;;;;3.33;71.38;101756.38;5107399;22;20061;-68
2021/05/03 03:23:53;;;;;;;11.45;4.63;;;;;;;3.30;71.82;101758.84;5094100;28;20044;-68
2021/05/03 03:26:20;;;;;;;10.40;4.85;;;;;;;3.34;71.54;101753.84;5103558;28;20040;-69
2021/05/03 03:28:46;;;;;;;10.93;4.78;;;;;;;3.35;71.66;101758.16;5095278;28;20055;-68
2021/05/03 03:31:12;;;;;;;11.63;4.93;;;;;;;3.22;71.56;101754.38;5096242;28;20466;-69
2021/05/03 03:33:38;;;;;;;12.88;5.53;;;;;;;3.16;71.80;101756.78;5093547;28;20055;-69
2021/05/03 03:36:06;;;;;;;9.80;4.18;;;;;;;3.17;71.96;101757.66;5092491;28;20036;-69
2021/05/03 03:38:33;;;;;;;11.00;4.38;;;;;;;3.17;72.02;101755.06;5091063;28;20056;-69
2021/05/03 03:40:59;;;;;;;6.93;4.10;;;;;;;3.10;72.19;101749.78;5086311;28;20469;-70
2021/05/03 03:43:25;;;;;;;9.25;3.97;;;;;;;3.12;72.24;101752.38;5091208;28;20047;-69
2021/05/03 03:45:51;;;;;;;10.82;4.70;;;;;;;3.09;72.11;101750.59;5093819;28;20055;-68
2021/05/03 03:48:17;;;;;;;11.43;4.90;;;;;;;2.95;72.38;101752.78;5099340;28;20066;-68
2021/05/03 03:50:43;;;;;;;8.65;4.65;;;;;;;3.03;72.72;101747.88;5092402;28;20040;-70
2021/05/03 03:53:09;;;;;;;8.23;4.43;;;;;;;3.06;72.18;101747.06;5091714;28;20053;-69
2021/05/03 03:55:36;;;;;;;6.88;4.40;;;;;;;3.01;71.95;101741.81;5081660;28;20511;-66
2021/05/03 03:58:03;;;;;;;7.22;4.18;;;;;;;2.93;71.87;101745.88;5083193;28;20479;-67
2021/05/03 04:00:29;;;;;;;10.35;4.93;;;;;;;2.94;71.89;101750.19;5082822;28;20062;-67
2021/05/03 04:02:56;;;;;;;9.45;4.70;;;;;;;2.97;71.57;101750.25;5086358;28;20059;-69
2021/05/03 04:05:35;;;;;;;10.50;4.22;;;;;;;2.99;72.31;101747.75;5084286;28;20113;-69
2021/05/03 04:08:06;;;;;;;8.18;3.75;;;;;;;3.00;72.18;101752.91;5083829;28;20078;-68
2021/05/03 04:10:42;;;;;;;8.45;4.20;;;;;;;3.00;72.17;101755.47;5084455;28;20421;-67
2021/05/03 04:13:27;;;;;;;10.02;4.70;;;;;;;2.95;71.84;101755.34;5086570;28;20079;-68
2021/05/03 04:21:26;;;;;;;10.25;5.05;;;;;;;2.90;72.50;101748.34;5082107;28;20173;-67
2021/05/03 04:24:07;;;;;;;7.25;4.65;;;;;;;2.93;72.42;101754.44;5083135;28;20076;-67
2021/05/03 04:26:33;;;;;;;8.98;4.80;;;;;;;2.92;72.06;101755.25;5087502;28;20055;-68
2021/05/03 04:29:00;;;;;;;9.98;5.25;;;;;;;3.02;72.36;101751.25;5079286;28;20044;-68
2021/05/03 04:31:26;;;;;;;9.50;5.70;;;;;;;3.17;71.78;101748.25;5075270;28;20541;-69
2021/05/03 04:33:53;;;;;;;10.73;5.60;;;;;;;3.29;72.13;101745.13;5082807;28;20044;-67
2021/05/03 04:36:20;;;;;;;8.90;5.05;;;;;;;3.41;71.56;101754.88;5087825;28;20059;-67
2021/05/03 04:38:46;;;;;;;10.15;5.70;;;;;;;3.58;71.24;101748.50;5083740;28;20067;-68
2021/05/03 04:41:12;;;;;;;10.13;5.65;;;;;;;3.75;71.20;101750.63;5081266;28;20055;-68
2021/05/03 04:43:38;;;;;;;12.13;6.03;;;;;;;3.97;71.16;101752.00;5084069;28;20052;-68
2021/05/03 04:46:05;;;;;;;9.23;5.35;;;;;;;4.19;70.17;101748.25;5078631;28;20525;-70
2021/05/03 04:48:31;;;;;;;11.85;5.50;;;;;;;4.46;68.69;101749.72;5084643;28;20051;-68
2021/05/03 04:50:58;;;;;;;10.43;6.18;;;;;;;4.58;69.63;101746.53;5078692;28;20040;-68
2021/05/03 04:53:24;;;;;;;8.38;5.35;;;;;;;4.80;68.92;101747.88;5082842;28;20044;-68
2021/05/03 04:55:50;;;;;;;12.50;4.97;;;;;;;5.23;73.19;101749.56;5079734;28;20045;-62
2021/05/03 04:58:17;;;;;;;11.68;5.47;;;;;;;5.77;69.24;101758.28;5078789;28;20070;-64
2021/05/03 05:00:43;;;;;;;9.38;4.65;;;;;;;6.23;70.66;101758.19;5085366;28;20138;-65
2021/05/03 05:03:09;;;;;;;9.90;5.15;;;;;;;6.64;64.68;101762.22;5076349;28;20062;-65
2021/05/03 05:05:35;;;;;;;9.07;5.38;;;;;;;6.63;63.43;101751.03;5083292;28;20055;-63
2021/05/03 05:08:01;;;;;;;12.00;5.55;;;;;;;6.71;63.42;101751.13;5083819;28;21283;-62
2021/05/03 05:10:27;;;;;;;10.60;5.03;;;;;;;6.78;63.15;101757.25;5081942;28;20047;-64
2021/05/03 05:12:53;;;;;;;13.75;5.28;;;;;;;6.73;62.75;101759.78;5080622;28;20530;-64
2021/05/03 05:15:20;;;;;;;10.70;5.63;;;;;;;6.61;63.66;101755.28;5080214;28;20044;-63
2021/05/03 05:17:47;;;;;;;10.45;5.10;;;;;;;6.52;63.81;101750.00;5083159;28;20161;-63
2021/05/03 05:20:14;;;;;;;10.20;5.07;;;;;;;6.40;64.08;101753.28;5084231;28;20447;-62
2021/05/03 05:22:40;;;;;;;14.25;6.30;;;;;;;6.27;63.94;101748.78;5081937;28;20064;-64
2021/05/03 05:25:07;;;;;;;20.45;6.38;;;;;;;6.24;64.62;101749.59;5077830;28;20055;-66
2021/05/03 05:27:33;;;;;;;11.98;5.78;;;;;;;6.21;65.21;101744.38;5086056;28;20051;-63
2021/05/03 05:29:59;;;;;;;14.05;6.63;;;;;;;6.13;65.28;101748.56;5081200;28;20044;-62
2021/05/03 05:32:25;;;;;;;12.00;5.90;;;;;;;6.22;64.78;101748.72;5080625;28;20417;-64
2021/05/03 05:34:52;;;;;;;10.35;5.60;;;;;;;6.30;65.36;101747.09;5080253;28;20044;-63
2021/05/03 05:37:18;;;;;;;12.57;7.10;;;;;;;6.40;64.91;101755.00;5086168;28;20047;-64
2021/05/03 05:39:44;;;;;;;8.30;5.28;;;;;;;6.66;64.63;101745.91;5084150;28;20052;-66
2021/05/03 05:42:10;;;;;;;12.73;5.25;;;;;;;6.78;63.91;101742.59;5077757;28;20056;-64
2021/05/03 05:44:36;;;;;;;12.82;5.68;;;;;;;6.90;63.95;101749.63;5084028;28;20463;-63
2021/05/03 05:47:03;;;;;;;13.68;5.10;;;;;;;7.01;64.16;101742.03;5080691;28;20056;-63
2021/05/03 05:49:29;;;;;;;9.85;5.40;;;;;;;7.03;63.82;101745.50;5076838;28;20505;-66
2021/05/03 05:51:55;;;;;;;10.75;4.88;;;;;;;7.13;63.50;101742.16;5084947;28;20051;-62
2021/05/03 05:54:22;;;;;;;9.07;5.38;;;;;;;7.34;62.98;101743.22;5078292;28;20049;-63
2021/05/03 05:56:48;;;;;;;12.90;6.97;;;;;;;7.54;62.58;101742.56;5084992;28;20052;-60
2021/05/03 05:59:14;;;;;;;10.55;5.95;;;;;;;7.67;61.62;101730.63;5083642;28;20048;-63
2021/05/03 06:01:41;;;;;;;10.40;5.20;;;;;;;7.69;61.31;101732.34;5082430;28;20040;-63
2021/05/03 06:04:06;;;;;;;9.57;6.03;;;;;;;7.76;61.55;101734.13;5083091;28;20044;-63
2021/05/03 06:06:33;;;;;;;15.95;6.22;;;;;;;7.66;60.62;101740.09;5086354;28;20096;-64
2021/05/03 06:09:00;;;;;;;11.50;5.68;;;;;;;7.57;61.18;101737.41;5082140;28;20461;-63
2021/05/03 06:11:27;;;;;;;9.52;4.97;;;;;;;7.58;61.50;101739.16;5081464;28;20123;-62
2021/05/03 06:13:53;;;;;;;10.63;5.47;;;;;;;7.65;61.39;101733.16;5077988;28;20045;-63
2021/05/03 06:16:19;;;;;;;12.02;5.28;;;;;;;7.67;60.82;101741.81;5077776;28;20101;-65
2021/05/03 06:18:45;;;;;;;8.98;4.97;;;;;;;7.78;61.11;101731.56;5080529;28;20412;-62
2021/05/03 06:21:11;;;;;;;9.48;5.35;;;;;;;7.93;60.11;101736.03;5081309;28;20051;-65
2021/05/03 06:23:37;;;;;;;10.88;5.30;;;;;;;7.99;60.68;101735.16;5084032;28;20637;-66
2021/05/03 06:26:03;;;;;;;11.18;5.15;;;;;;;8.02;59.94;101736.09;5080418;28;20068;-64
2021/05/03 06:28:30;;;;;;;8.68;5.07;;;;;;;8.02;60.29;101730.03;5080985;28;20059;-63
2021/05/03 06:30:57;;;;;;;10.23;5.00;;;;;;;8.04;59.83;101731.75;5083437;28;20044;-65
2021/05/03 06:33:23;;;;;;;9.75;4.70;;;;;;;8.04;60.31;101734.34;5081859;28;20525;-63
2021/05/03 06:35:49;;;;;;;10.55;5.53;;;;;;;8.07;60.64;101731.78;5082755;28;20501;-61
2021/05/03 06:38:16;;;;;;;9.95;5.63;;;;;;;8.06;59.68;101731.78;5079741;28;20379;-62
2021/05/03 06:40:42;;;;;;;10.05;5.47;;;;;;;8.10;58.02;101730.94;5075488;28;20438;-65
2021/05/03 06:43:08;;;;;;;11.00;5.10;;;;;;;8.07;58.33;101733.53;5082268;28;20067;-64
2021/05/03 06:45:35;;;;;;;13.65;5.60;;;;;;;8.07;58.49;101736.97;5082709;28;20549;-64
2021/05/03 06:48:01;;;;;;;10.27;5.45;;;;;;;8.05;58.66;101730.91;5074392;28;20049;-67
2021/05/03 06:50:27;;;;;;;14.45;5.57;;;;;;;8.12;58.70;101738.75;5076485;28;20049;-64
2021/05/03 06:52:54;;;;;;;9.45;5.45;;;;;;;8.31;58.12;101727.63;5082186;28;20105;-64
2021/05/03 06:55:20;;;;;;;10.80;5.22;;;;;;;8.45;56.66;101729.44;5086233;28;20299;-64
2021/05/03 06:57:46;;;;;;;12.13;5.13;;;;;;;8.60;55.74;101733.84;5081629;28;20053;-65
2021/05/03 07:00:14;;;;;;;10.23;4.78;;;;;;;8.67;56.49;101728.72;5078822;28;20086;-63
2021/05/03 07:02:42;;;;;;;9.10;5.03;;;;;;;8.89;55.59;101736.59;5077777;28;20048;-67
2021/05/03 07:05:09;;;;;;;9.40;5.35;;;;;;;8.92;54.85;101730.53;5082223;28;20195;-66
2021/05/03 07:07:35;;;;;;;9.25;4.50;;;;;;;8.97;54.46;101734.03;5082685;28;20113;-65
2021/05/03 07:10:01;;;;;;;9.95;5.10;;;;;;;8.94;55.53;101734.88;5082515;28;20394;-63
2021/05/03 07:12:27;;;;;;;8.90;4.68;;;;;;;9.03;55.30;101729.72;5077786;28;20058;-63
2021/05/03 07:14:54;;;;;;;12.10;4.43;;;;;;;9.22;55.02;101734.09;5082721;28;20051;-65
2021/05/03 07:17:20;;;;;;;9.40;4.82;;;;;;;9.28;53.71;101726.34;5087365;28;20072;-64
2021/05/03 07:19:47;;;;;;;11.23;4.80;;;;;;;9.49;54.01;101728.09;5083050;28;20517;-64
2021/05/03 07:22:13;;;;;;;8.40;4.38;;;;;;;9.50;54.13;101727.25;5083511;28;20041;-64
2021/05/03 07:24:40;;;;;;;11.40;5.10;;;;;;;9.67;54.58;101726.38;5087680;28;20441;-64
2021/05/03 07:27:08;;;;;;;10.45;4.97;;;;;;;9.88;52.96;101734.19;5085443;28;20113;-63
2021/05/03 07:29:35;;;;;;;8.20;5.22;;;;;;;9.85;53.03;101728.97;5084735;28;20059;-61
2021/05/03 07:32:01;;;;;;;8.60;4.28;;;;;;;9.99;51.46;101725.50;5085040;28;20114;-64
2021/05/03 07:34:27;;;;;;;12.23;4.78;;;;;;;9.96;52.82;101729.00;5086976;28;20048;-64
2021/05/03 07:36:54;;;;;;;10.52;5.07;;;;;;;9.96;54.00;101724.63;5086375;28;20051;-66
2021/05/03 07:39:20;;;;;;;8.93;4.18;;;;;;;10.26;51.26;101719.41;5080422;28;20044;-66
2021/05/03 07:41:46;;;;;;;7.60;3.95;;;;;;;10.35;51.21;101713.31;5085412;28;20048;-66
2021/05/03 07:44:12;;;;;;;9.35;4.30;;;;;;;10.42;50.25;101715.06;5086767;28;20044;-65
2021/05/03 07:46:38;;;;;;;9.63;4.38;;;;;;;10.46;49.44;101718.53;5084043;28;20097;-66
2021/05/03 07:49:06;;;;;;;8.32;4.00;;;;;;;10.42;50.24;101708.13;5084874;28;20048;-66
2021/05/03 07:51:32;;;;;;;8.93;4.68;;;;;;;10.56;50.13;101708.06;5086299;28;20079;-64
2021/05/03 07:54:01;;;;;;;6.95;3.65;;;;;;;10.64;49.96;101702.84;5083417;28;20055;-63
2021/05/03 07:56:30;;;;;;;9.20;4.32;;;;;;;10.88;49.02;101707.09;5084337;28;20051;-63
2021/05/03 07:58:56;;;;;;;14.43;5.28;;;;;;;10.85;49.19;101698.44;5088802;28;20055;-66
2021/05/03 08:01:22;;;;;;;12.60;4.40;;;;;;;11.10;48.00;101695.69;5085175;28;20048;-65
2021/05/03 08:03:48;;;;;;;6.28;3.55;;;;;;;11.18;48.09;101697.38;5081575;28;20051;-65
2021/05/03 08:06:15;;;;;;;9.95;3.75;;;;;;;11.25;47.64;101697.31;5084146;28;20071;-63
2021/05/03 08:08:41;;;;;;;9.88;4.20;;;;;;;11.31;45.95;101692.94;5084762;28;20062;-66
2021/05/03 08:11:09;;;;;;;10.55;4.43;;;;;;;11.40;45.91;101691.13;5082613;28;20036;-67
2021/05/03 08:13:35;;;;;;;9.02;4.95;;;;;;;11.51;45.56;101686.72;5084784;28;20055;-66
2021/05/03 08:16:03;;;;;;;7.10;3.50;;;;;;;11.58;43.76;101684.94;5085680;28;20051;-64
2021/05/03 08:18:29;;;;;;;9.18;4.18;;;;;;;11.60;43.94;101683.19;5084788;28;20057;-65
2021/05/03 08:20:56;;;;;;;7.30;4.25;;;;;;;11.68;44.00;101688.34;5083182;28;20040;-67
2021/05/03 08:23:22;;;;;;;8.32;4.40;;;;;;;11.76;43.14;101690.00;5084993;28;20513;-68
2021/05/03 08:25:49;;;;;;;9.15;3.90;;;;;;;11.63;43.89;101691.84;5085729;28;20055;-65
2021/05/03 08:28:17;;;;;;;11.63;3.95;;;;;;;11.82;42.88;101686.47;5084244;28;20425;-64
2021/05/03 08:30:43;;;;;;;8.57;4.72;;;;;;;11.97;42.98;101677.63;5084323;28;20044;-66
2021/05/03 08:33:10;;;;;;;10.68;4.78;;;;;;;12.01;42.88;101683.72;5085325;28;20048;-64
2021/05/03 08:35:36;;;;;;;7.70;4.10;;;;;;;12.01;42.12;101674.16;5080404;28;20445;-64
2021/05/03 08:38:02;;;;;;;10.30;4.57;;;;;;;11.79;43.42;101682.16;5082876;28;20585;-63
2021/05/03 08:40:29;;;;;;;12.43;4.88;;;;;;;11.78;43.17;101677.81;5084182;28;20044;-65
2021/05/03 08:42:56;;;;;;;7.95;3.85;;;;;;;11.92;41.34;101667.25;5086003;28;20585;-66
2021/05/03 08:45:23;;;;;;;8.93;4.68;;;;;;;11.85;42.73;101670.81;5087709;28;20047;-66
2021/05/03 08:48:01;;;;;;;11.93;4.90;;;;;;;11.92;42.41;101664.63;5083019;28;20082;-65
2021/05/03 08:50:44;;;;;;;7.55;4.07;;;;;;;12.11;42.02;101669.69;5085303;28;20394;-65
2021/05/03 08:53:12;;;;;;;10.07;4.90;;;;;;;12.21;42.94;101662.66;5083087;28;20072;-66
2021/05/03 08:55:38;;;;;;;9.30;4.68;;;;;;;12.40;41.28;101658.06;5086793;28;20060;-66
2021/05/03 08:58:04;;;;;;;7.85;4.95;;;;;;;12.53;41.27;101664.00;5083716;28;20051;-66
2021/05/03 09:00:31;;;;;;;8.35;5.20;;;;;;;12.33;40.80;101665.09;5083170;28;20531;-64
2021/05/03 09:03:00;;;;;;;10.38;4.90;;;;;;;12.33;41.62;101656.41;5081757;28;20052;-63
2021/05/03 09:05:26;;;;;;;8.63;4.78;;;;;;;12.50;40.97;101651.00;5081588;28;20043;-65
2021/05/03 09:07:53;;;;;;;14.95;5.78;;;;;;;12.69;40.56;101647.28;5082925;28;20055;-65
2021/05/03 09:10:20;;;;;;;10.30;4.93;;;;;;;12.72;41.26;101647.25;5083313;28;20040;-64
2021/05/03 09:12:47;;;;;;;8.23;5.07;;;;;;;12.60;41.67;101635.19;5083252;28;20055;-64
2021/05/03 09:15:19;;;;;;;13.35;4.70;;;;;;;12.71;40.27;101637.69;5079448;28;20048;-62
2021/05/03 09:17:45;;;;;;;9.77;4.68;;;;;;;12.80;40.72;101635.81;5083064;28;20040;-63
2021/05/03 09:20:14;;;;;;;12.95;5.15;;;;;;;12.95;41.10;101638.19;5083631;28;20661;-64
2021/05/03 09:22:44;;;;;;;10.80;5.22;;;;;;;13.00;39.09;101632.91;5086760;28;20075;-61
2021/05/03 09:25:19;;;;;;;8.23;5.18;;;;;;;13.12;39.58;101637.94;5085854;28;20071;-66
2021/05/03 09:27:45;;;;;;;;;;;;;;;13.16;40.26;101633.53;5080971;28;20047;-64
2021/05/03 09:30:12;;;;;;;6.82;4.35;;;;;;;13.46;39.70;101626.13;5085137;28;19919;-62
2021/05/03 09:32:38;;;;;;;9.65;5.53;;;;;;;13.53;39.47;101622.50;5083094;28;20055;-64
2021/05/03 09:35:05;;;;;;;13.40;5.55;;;;;;;13.34;39.38;101621.94;5084495;28;20072;-65
2021/05/03 09:37:35;;;;;;;11.48;5.55;;;;;;;13.51;39.73;101616.47;5081491;28;20406;-65
2021/05/03 09:40:08;;;;;;;10.05;5.35;;;;;;;13.56;38.69;101619.00;5086562;28;20409;-64
2021/05/03 09:42:49;;;;;;;9.85;4.80;;;;;;;13.70;39.05;101610.91;5086271;28;20161;-66
2021/05/03 09:45:18;;;;;;;11.77;5.30;;;;;;;13.78;37.41;101611.63;5083970;28;20040;-66
2021/05/03 09:47:45;;;;;;;10.02;5.20;;;;;;;13.89;38.11;101603.56;5080988;28;20044;-63
2021/05/03 09:50:14;;;;;;;8.75;4.45;;;;;;;13.97;37.52;101604.31;5084772;28;20044;-65
2021/05/03 09:52:59;;;;;;;6.70;4.65;;;;;;;13.85;38.91;101605.38;5086795;28;20048;-65
2021/05/03 09:58:17;;;;;;;9.00;5.75;;;;;;;14.09;36.59;101600.56;5040172;28;20061;-60
2021/05/03 10:00:45;;;;;;;8.77;5.47;;;;;;;14.10;37.27;101605.75;5041950;28;20041;-64
2021/05/03 10:03:34;;;;;;;10.50;5.57;;;;;;;13.96;37.84;101592.97;5045540;28;20045;-63
2021/05/03 10:06:02;;;;;;;11.13;5.65;;;;;;;13.89;37.77;101593.09;5045124;28;20141;-63
2021/05/03 10:08:28;;;;;;;12.77;5.95;;;;;;;13.77;38.27;101594.19;5048699;28;20052;-63
2021/05/03 10:10:58;;;;;;;9.27;5.68;;;;;;;13.58;37.46;101584.09;5048862;28;20479;-63
2021/05/03 10:13:24;;;;;;;10.57;5.43;;;;;;;13.46;38.26;101589.53;5046062;28;20076;-63
2021/05/03 10:15:54;;;;;;;10.20;5.78;;;;;;;13.52;38.00;101582.44;5049214;28;20059;-63
2021/05/03 10:18:21;;;;;;;12.48;6.03;;;;;;;13.62;37.70;101574.44;5039117;28;20091;-63
2021/05/03 10:20:47;;;;;;;12.32;5.95;;;;;;;13.76;38.60;101572.44;5046786;28;20580;-64
2021/05/03 10:23:15;;;;;;;11.18;6.75;;;;;;;14.05;37.48;101564.88;5049832;28;20672;-63
2021/05/03 10:25:42;;;;;;;13.68;6.47;;;;;;;14.14;37.03;101575.16;5045094;28;20071;-64
2021/05/03 10:28:08;;;;;;;9.35;5.82;;;;;;;14.16;36.42;101560.28;5049459;28;20516;-63
2021/05/03 10:30:42;;;;;;;13.30;5.50;;;;;;;14.22;37.50;101560.19;5049377;28;20050;-64
2021/05/03 10:33:10;;;;;;;9.38;6.30;;;;;;;14.20;37.60;101550.63;5046099;28;20045;-63
2021/05/03 10:35:42;;;;;;;11.40;5.97;;;;;;;14.30;37.00;101552.16;5045970;28;20158;-64
2021/05/03 10:38:31;;;;;;;9.52;6.45;;;;;;;14.48;36.00;101550.00;5048061;28;20052;-64
2021/05/03 10:40:58;;;;;;;8.15;5.80;;;;;;;14.44;36.26;101554.47;5049365;28;20170;-64
2021/05/03 10:43:28;;;;;;;11.13;6.30;;;;;;;14.37;36.02;101547.66;5046204;28;20814;-65
2021/05/03 10:46:05;;;;;;;10.30;6.22;;;;;;;14.54;36.31;101542.88;5052339;28;20052;-63
2021/05/03 10:48:39;;;;;;;9.48;6.32;;;;;;;14.63;35.95;101539.22;5052309;28;20136;-63
2021/05/03 10:51:09;;;;;;;8.70;5.55;;;;;;;14.66;36.13;101528.66;5053794;28;20375;-64
2021/05/03 10:53:39;;;;;;;11.52;5.95;;;;;;;14.92;35.65;101520.19;5045743;28;20040;-65
2021/05/03 10:56:07;;;;;;;9.82;6.40;;;;;;;15.12;34.39;101510.13;5043652;28;20052;-64
2021/05/03 10:59:06;;;;;;;10.00;5.70;;;;;;;15.01;34.22;101513.03;5053688;28;20049;-65
2021/05/03 11:02:05;;;;;;;9.57;6.32;;;;;;;14.90;35.01;101511.53;5050566;28;20053;-64
2021/05/03 11:04:33;;;;;;;8.70;5.30;;;;;;;14.96;34.46;101507.03;5052808;28;20045;-64
2021/05/03 11:07:11;;;;;;;8.40;5.60;;;;;;;14.85;34.00;101500.28;5050950;28;20071;-64
2021/05/03 11:09:41;;;;;;;11.13;6.00;;;;;;;14.81;33.78;101498.66;5050642;28;20041;-66
2021/05/03 11:12:30;;;;;;;9.75;5.22;;;;;;;14.78;34.92;101503.97;5051631;28;20076;-64
2021/05/03 11:15:10;;;;;;;9.15;5.07;;;;;;;14.92;33.72;101509.72;5048791;28;20561;-64
2021/05/03 11:17:36;;;;;;;10.30;5.45;;;;;;;15.15;33.33;101496.94;5052479;28;20053;-60
2021/05/03 11:20:07;;;;;;;14.50;4.93;;;;;;;15.22;33.37;101501.97;5051440;28;20528;-63
2021/05/03 11:22:42;;;;;;;11.32;6.07;;;;;;;15.26;32.70;101492.28;5048838;28;20045;-63
2021/05/03 11:25:14;;;;;;;13.18;6.13;;;;;;;15.02;33.97;101493.78;5046807;28;20080;-64
2021/05/03 11:27:47;;;;;;;9.77;6.07;;;;;;;14.92;34.55;101483.50;5039801;28;20053;-63
2021/05/03 11:30:17;;;;;;;10.05;4.78;;;;;;;14.74;34.70;101486.59;5043696;28;20049;-63
2021/05/03 11:32:44;;;;;;;10.48;5.28;;;;;;;14.54;34.98;101485.28;5049192;28;20053;-64
2021/05/03 11:35:17;;;;;;;9.77;5.60;;;;;;;14.48;34.69;101480.22;5047664;28;20126;-63
2021/05/03 11:37:49;;;;;;;9.32;5.25;;;;;;;14.41;35.57;101478.66;5048884;28;20480;-64